Time;durP1;ratioP1;P1;durP2;ratioP2;P2;SDS_P1;SDS_P2;PMS_P1;PMS_P2;Temp;Humidity;BMP_temperature;BMP_pressure;BME280_temperature;BME280_humidity;BME280_pressure;Samples;Min_cycle;Max_cycle;Signal;HPM_P1;HPM_P2
2021/05/11 00:02:50;;;;;;;8.85;4.10;;;;;;;14.07;50.05;99948.96;153607;1097;103375;-75
2021/05/11 00:05:53;;;;;;;6.75;4.10;;;;;;;14.08;49.99;99947.10;153573;1104;103200;-73
2021/05/11 00:08:57;;;;;;;5.10;4.07;;;;;;;14.09;49.98;99938.88;153569;1104;103125;-74
2021/05/11 00:12:00;;;;;;;4.97;4.13;;;;;;;14.09;50.39;99941.56;153576;1104;103205;-74
2021/05/11 00:15:06;;;;;;;5.23;4.13;;;;;;;14.11;50.13;99950.26;153590;1096;103118;-73
2021/05/11 00:18:10;;;;;;;6.65;4.40;;;;;;;14.12;50.14;99941.17;153640;1097;103556;-73
2021/05/11 00:21:14;;;;;;;6.73;4.30;;;;;;;14.11;50.30;99950.26;153641;1104;103205;-76
2021/05/11 00:24:17;;;;;;;7.48;4.75;;;;;;;14.11;50.52;99955.63;153588;1104;103130;-75
2021/05/11 00:27:21;;;;;;;7.48;4.98;;;;;;;14.10;50.57;99953.94;153587;1104;103202;-73
2021/05/11 00:30:25;;;;;;;6.40;4.05;;;;;;;14.07;50.43;99951.64;153585;1104;103201;-74
2021/05/11 00:33:28;;;;;;;7.53;4.80;;;;;;;14.09;50.49;99951.47;153595;1104;103213;-75
2021/05/11 00:36:32;;;;;;;5.20;4.20;;;;;;;14.07;50.59;99954.33;153614;1097;103128;-74
2021/05/11 00:39:36;;;;;;;7.33;4.38;;;;;;;14.06;50.77;99941.91;153583;1096;103204;-74
2021/05/11 00:42:39;;;;;;;7.30;4.17;;;;;;;14.05;50.72;99948.31;153606;1097;103272;-74
2021/05/11 00:45:43;;;;;;;9.33;4.30;;;;;;;14.04;50.85;99946.63;153595;1104;103213;-75
2021/05/11 00:48:47;;;;;;;9.35;5.00;;;;;;;14.03;50.93;99936.94;153586;1097;103232;-74
2021/05/11 00:51:51;;;;;;;5.60;4.08;;;;;;;14.02;50.82;99937.11;153623;1097;103508;-75
2021/05/11 00:54:56;;;;;;;7.68;4.40;;;;;;;13.98;51.01;99939.33;153638;1104;103293;-75
2021/05/11 00:58:00;;;;;;;6.77;4.40;;;;;;;13.96;50.90;99941.36;153600;1096;103230;-74
2021/05/11 01:01:04;;;;;;;6.45;4.10;;;;;;;13.94;50.91;99940.70;153619;1104;103212;-75
2021/05/11 01:04:08;;;;;;;5.95;3.90;;;;;;;13.92;51.08;99940.06;153600;1104;103277;-74
2021/05/11 01:07:11;;;;;;;6.67;4.10;;;;;;;13.91;51.24;99943.74;153610;1104;103215;-73
2021/05/11 01:10:15;;;;;;;6.30;4.05;;;;;;;13.91;51.19;99933.02;153586;1104;103117;-75
2021/05/11 01:13:18;;;;;;;7.67;4.13;;;;;;;13.90;51.20;99939.41;153567;1097;103224;-75
2021/05/11 01:16:25;;;;;;;4.68;4.00;;;;;;;13.89;51.24;99927.00;153659;1096;103219;-77
2021/05/11 01:19:39;;;;;;;6.98;4.50;;;;;;;13.87;51.30;99934.40;153604;1104;103688;-74
2021/05/11 01:26:07;;;;;;;5.67;4.03;;;;;;;13.79;51.70;99929.95;153679;1104;103200;-74
2021/05/11 01:32:51;;;;;;;5.83;4.03;;;;;;;13.73;51.76;99931.50;153612;1104;103532;-75
2021/05/11 01:46:29;;;;;;;7.00;4.10;;;;;;;13.64;51.89;99929.08;153585;1104;103161;-73
2021/05/11 01:50:01;;;;;;;7.00;4.30;;;;;;;13.61;52.00;99924.09;153623;1104;103155;-75
2021/05/11 02:10:19;;;;;;;5.33;4.23;;;;;;;13.47;52.15;99920.34;153567;1097;103138;-73
2021/05/11 02:23:31;;;;;;;7.03;4.08;;;;;;;13.20;52.65;99902.94;153597;1104;103225;-76
2021/05/11 02:26:35;;;;;;;6.35;3.95;;;;;;;13.15;52.81;99906.16;153644;1104;103318;-74
2021/05/11 02:29:39;;;;;;;7.40;4.38;;;;;;;13.11;52.86;99904.86;153588;1097;103208;-73
2021/05/11 02:32:44;;;;;;;5.48;4.10;;;;;;;13.08;53.06;99897.98;153607;1096;103219;-75
2021/05/11 02:35:47;;;;;;;6.95;4.40;;;;;;;13.06;53.03;99901.86;153639;1104;103142;-75
2021/05/11 02:38:51;;;;;;;8.15;4.15;;;;;;;13.03;53.18;99899.53;153633;1104;103131;-75
2021/05/11 02:41:54;;;;;;;5.87;4.20;;;;;;;12.99;52.96;99898.22;153685;1104;103289;-75
2021/05/11 02:44:58;;;;;;;5.90;4.40;;;;;;;12.94;52.96;99899.59;153747;1097;103234;-73
2021/05/11 02:48:02;;;;;;;5.17;4.40;;;;;;;12.89;53.48;99907.31;153676;1104;103109;-72
2021/05/11 02:51:06;;;;;;;7.90;4.77;;;;;;;12.90;53.69;99902.81;153686;1096;103206;-75
2021/05/11 02:54:09;;;;;;;5.95;4.50;;;;;;;12.89;53.39;99901.13;153870;1104;103205;-75
2021/05/11 02:57:13;;;;;;;8.13;4.78;;;;;;;12.87;53.58;99903.98;153693;1104;103252;-75
2021/05/11 03:00:19;;;;;;;5.73;4.28;;;;;;;12.86;53.51;99902.33;153607;1097;103505;-77
2021/05/11 03:03:23;;;;;;;7.33;4.57;;;;;;;12.90;53.82;99908.17;153698;1104;103208;-74
2021/05/11 03:06:26;;;;;;;6.67;4.03;;;;;;;12.93;53.61;99911.33;153772;1105;103166;-76
2021/05/11 03:09:30;;;;;;;6.93;4.67;;;;;;;12.94;53.99;99907.63;153784;1096;103227;-75
2021/05/11 03:12:33;;;;;;;7.05;4.80;;;;;;;12.98;54.31;99907.28;153741;1104;103282;-75
2021/05/11 03:15:37;;;;;;;6.88;4.63;;;;;;;13.02;53.63;99905.91;153672;1096;103675;-75
2021/05/11 03:18:43;;;;;;;14.90;4.90;;;;;;;13.04;54.18;99898.53;153586;1097;103856;-74
2021/05/11 03:21:47;;;;;;;6.07;5.13;;;;;;;13.07;54.08;99900.87;153587;1097;103205;-75
2021/05/11 03:24:50;;;;;;;8.23;5.07;;;;;;;13.08;53.88;99902.52;153623;1104;103225;-75
2021/05/11 03:27:54;;;;;;;6.70;4.60;;;;;;;13.10;53.92;99906.67;153670;1104;103283;-74
2021/05/11 03:30:58;;;;;;;7.00;4.38;;;;;;;13.15;53.73;99906.16;153611;1097;103208;-74
2021/05/11 03:34:01;;;;;;;7.13;4.90;;;;;;;13.19;54.46;99907.47;153615;1104;103113;-75
2021/05/11 03:37:05;;;;;;;7.03;4.63;;;;;;;13.23;54.21;99897.23;153581;1097;103154;-76
2021/05/11 03:40:12;;;;;;;7.30;4.73;;;;;;;13.30;54.74;99909.77;153676;1104;103152;-74
2021/05/11 03:43:22;;;;;;;7.05;4.63;;;;;;;13.47;53.97;99904.25;153605;1104;103287;-73
2021/05/11 03:46:25;;;;;;;6.80;4.43;;;;;;;13.67;54.26;99900.06;153706;1104;103138;-73
2021/05/11 03:49:29;;;;;;;6.37;4.60;;;;;;;13.86;54.13;99893.34;153620;1096;103206;-74
2021/05/11 03:52:32;;;;;;;5.75;4.50;;;;;;;14.06;53.99;99893.63;153643;1097;103269;-73
2021/05/11 03:55:36;;;;;;;9.40;4.47;;;;;;;14.25;53.90;99894.09;153651;1104;103240;-73
2021/05/11 03:58:39;;;;;;;7.78;4.58;;;;;;;14.45;53.96;99892.52;153619;1104;103315;-74
2021/05/11 04:01:43;;;;;;;6.05;4.40;;;;;;;14.65;53.89;99886.58;153630;1104;103200;-74
2021/05/11 04:04:47;;;;;;;6.75;4.40;;;;;;;14.83;53.73;99884.30;153560;1096;103123;-72
2021/05/11 04:07:51;;;;;;;6.13;4.73;;;;;;;15.00;53.78;99889.44;153626;1104;103117;-74
2021/05/11 04:10:57;;;;;;;6.40;4.40;;;;;;;15.19;53.44;99883.43;153610;1097;103131;-75
2021/05/11 04:17:19;;;;;;;6.80;4.65;;;;;;;15.58;53.04;99882.10;153603;1104;103224;-74
2021/05/11 04:20:23;;;;;;;7.25;5.45;;;;;;;15.77;53.38;99879.80;153556;1104;103142;-73
2021/05/11 04:23:26;;;;;;;6.30;4.57;;;;;;;15.94;53.29;99886.54;153571;1097;103213;-74
2021/05/11 04:26:32;;;;;;;6.43;4.70;;;;;;;16.14;52.71;99888.52;153589;1097;103104;-72
2021/05/11 04:29:35;;;;;;;7.83;4.33;;;;;;;16.34;52.71;99891.30;153578;1104;103641;-76
2021/05/11 04:32:39;;;;;;;5.55;4.30;;;;;;;16.47;52.53;99889.53;153638;1104;103215;-75
2021/05/11 04:35:43;;;;;;;6.78;4.43;;;;;;;16.60;52.36;99887.91;153586;1096;103157;-73
2021/05/11 04:38:46;;;;;;;7.87;4.70;;;;;;;16.71;52.10;99884.63;153568;1104;103240;-75
2021/05/11 04:41:50;;;;;;;9.07;4.60;;;;;;;16.82;52.22;99886.78;153614;1104;103149;-74
2021/05/11 04:44:54;;;;;;;6.98;4.58;;;;;;;16.91;51.78;99884.70;153623;1104;103280;-73
2021/05/11 04:47:58;;;;;;;7.17;4.30;;;;;;;17.02;51.93;99889.51;153659;1097;103142;-74
2021/05/11 04:51:02;;;;;;;6.70;5.00;;;;;;;17.13;51.49;99889.93;153721;1096;103325;-74
2021/05/11 04:54:06;;;;;;;5.48;4.18;;;;;;;17.21;51.13;99892.45;153774;1104;103123;-75
2021/05/11 04:57:09;;;;;;;6.67;4.73;;;;;;;17.30;51.59;99890.38;153704;1104;103203;-74
2021/05/11 05:00:16;;;;;;;9.53;4.40;;;;;;;17.40;51.23;99893.52;153641;1097;103157;-75
2021/05/11 05:03:25;;;;;;;19.23;13.23;;;;;;;17.50;51.41;99888.53;153763;1104;103505;-75
2021/05/11 05:06:29;;;;;;;8.87;5.63;;;;;;;17.61;51.28;99887.91;153641;1096;103135;-76
2021/05/11 05:09:32;;;;;;;8.97;5.80;;;;;;;17.67;50.94;99886.25;153685;1097;103538;-73
2021/05/11 05:12:36;;;;;;;7.00;5.13;;;;;;;17.71;50.65;99884.78;153741;1104;103170;-73
2021/05/11 05:15:40;;;;;;;7.63;4.60;;;;;;;17.79;50.79;99881.05;153610;1097;103229;-76
2021/05/11 05:18:43;;;;;;;5.83;4.20;;;;;;;17.88;50.76;99887.06;153617;1104;103128;-75
2021/05/11 05:21:48;;;;;;;5.40;4.53;;;;;;;17.99;50.86;99875.63;153636;1096;103152;-75
2021/05/11 05:24:53;;;;;;;8.85;5.45;;;;;;;18.10;50.93;99868.77;153571;1104;103135;-75
2021/05/11 05:27:59;;;;;;;9.20;5.60;;;;;;;18.21;50.74;99873.52;153620;1104;103138;-75
2021/05/11 05:31:03;;;;;;;10.93;4.90;;;;;;;18.29;50.54;99873.27;153579;1097;103288;-76
2021/05/11 05:34:06;;;;;;;6.77;5.03;;;;;;;18.34;50.43;99868.07;153632;1104;103154;-76
2021/05/11 05:37:11;;;;;;;6.90;4.90;;;;;;;18.39;50.41;99875.52;153658;1097;103126;-75
2021/05/11 05:40:20;;;;;;;6.90;4.65;;;;;;;18.42;50.49;99873.23;153662;1104;103237;-76
2021/05/11 05:43:23;;;;;;;8.00;4.60;;;;;;;18.47;50.57;99874.45;153650;1097;103500;-76
2021/05/11 05:46:27;;;;;;;6.70;4.73;;;;;;;18.53;50.44;99879.81;153579;1097;103302;-75
2021/05/11 05:49:34;;;;;;;7.50;4.58;;;;;;;18.55;50.08;99876.91;153634;1104;103227;-75
2021/05/11 05:52:39;;;;;;;7.40;5.03;;;;;;;18.54;50.16;99873.38;153616;1097;103154;-75
2021/05/11 05:55:43;;;;;;;6.75;4.70;;;;;;;18.58;50.09;99868.38;153572;1097;103136;-71
2021/05/11 05:58:47;;;;;;;6.98;4.73;;;;;;;18.59;50.11;99861.91;153512;1097;103141;-71
2021/05/11 06:01:53;;;;;;;7.53;4.90;;;;;;;18.62;49.79;99856.91;153684;1101;103208;-71
2021/05/11 06:04:56;;;;;;;8.65;5.08;;;;;;;18.64;49.94;99864.81;153837;1097;103149;-71
2021/05/11 06:08:00;;;;;;;6.87;4.80;;;;;;;18.64;49.61;99862.11;154027;1096;103227;-71
2021/05/11 06:11:11;;;;;;;7.73;5.00;;;;;;;18.65;49.90;99855.67;153784;1101;103132;-71
2021/05/11 06:14:19;;;;;;;9.67;4.87;;;;;;;18.67;49.59;99864.39;153946;1101;103295;-71
2021/05/11 06:17:23;;;;;;;6.73;5.13;;;;;;;18.65;49.51;99861.08;153849;1101;103212;-71
2021/05/11 06:20:26;;;;;;;10.60;4.80;;;;;;;18.66;49.65;99851.09;153972;1096;103147;-72
2021/05/11 06:23:30;;;;;;;6.63;4.30;;;;;;;18.69;49.77;99850.64;153929;1101;103131;-72
2021/05/11 06:26:33;;;;;;;6.98;4.85;;;;;;;18.72;49.63;99847.52;153902;1101;103151;-71
2021/05/11 06:29:39;;;;;;;8.45;4.45;;;;;;;18.74;49.46;99842.72;153794;1101;103219;-72
2021/05/11 06:32:42;;;;;;;7.28;4.60;;;;;;;18.79;49.64;99849.13;153943;1101;103186;-71
2021/05/11 06:35:48;;;;;;;9.10;4.55;;;;;;;18.84;49.36;99837.69;153932;1101;103200;-71
2021/05/11 06:38:52;;;;;;;7.98;4.48;;;;;;;18.90;49.72;99835.99;153949;1096;103139;-72
2021/05/11 06:41:57;;;;;;;9.05;4.65;;;;;;;18.95;49.50;99838.88;153905;1101;103156;-72
2021/05/11 06:45:06;;;;;;;6.93;4.65;;;;;;;18.98;49.12;99838.45;153832;1096;103585;-71
2021/05/11 06:48:12;;;;;;;7.95;4.50;;;;;;;19.00;49.56;99839.06;153929;1097;103264;-71
2021/05/11 06:54:38;;;;;;;8.45;4.90;;;;;;;19.15;49.35;99834.17;153913;1101;103205;-71
2021/05/11 06:57:42;;;;;;;5.78;4.33;;;;;;;19.20;49.31;99831.61;153975;1101;103134;-71
2021/05/11 07:00:45;;;;;;;5.60;4.47;;;;;;;19.26;49.31;99840.73;153981;1097;103208;-71
2021/05/11 07:03:49;;;;;;;6.20;4.35;;;;;;;19.33;49.32;99836.10;153825;1101;103293;-71
2021/05/11 07:06:53;;;;;;;5.90;4.50;;;;;;;19.43;49.25;99836.42;153949;1101;103582;-71
2021/05/11 07:10:07;;;;;;;6.93;4.50;;;;;;;19.47;48.98;99825.98;153927;1096;103115;-70
2021/05/11 07:13:12;;;;;;;7.45;4.50;;;;;;;19.50;48.80;99820.14;153841;1101;103204;-72
2021/05/11 07:16:15;;;;;;;6.70;4.50;;;;;;;19.56;49.22;99823.84;153993;1097;103106;-72
2021/05/11 07:19:19;;;;;;;7.03;4.58;;;;;;;19.64;49.25;99828.14;153943;1097;103225;-72
2021/05/11 07:22:23;;;;;;;7.13;4.58;;;;;;;19.72;49.51;99820.57;153832;1101;103248;-72
2021/05/11 07:25:30;;;;;;;6.90;4.33;;;;;;;19.80;49.27;99820.30;153972;1097;103117;-72
2021/05/11 07:28:43;;;;;;;7.85;5.00;;;;;;;19.91;48.91;99810.59;153821;1097;103220;-71
2021/05/11 07:31:47;;;;;;;7.60;4.60;;;;;;;19.95;48.77;99821.80;153956;1096;103134;-72
2021/05/11 07:34:54;;;;;;;6.13;4.73;;;;;;;19.99;48.59;99820.30;153865;1101;103264;-71
2021/05/11 07:37:57;;;;;;;9.53;4.70;;;;;;;20.03;48.86;99826.09;153950;1101;103490;-73
2021/05/11 07:41:01;;;;;;;6.23;4.93;;;;;;;20.11;48.81;99815.80;153778;1096;103208;-72
2021/05/11 07:44:06;;;;;;;8.78;4.98;;;;;;;20.25;49.25;99812.92;153837;1101;103251;-72
2021/05/11 07:47:14;;;;;;;8.97;4.83;;;;;;;20.31;48.88;99810.13;153920;1096;103134;-72
2021/05/11 07:50:34;;;;;;;6.50;4.13;;;;;;;20.38;48.74;99808.16;153948;1101;103299;-73
2021/05/11 08:04:08;;;;;;;7.70;4.58;;;;;;;20.63;48.25;99801.81;153959;1096;103216;-72
2021/05/11 08:17:18;;;;;;;7.60;4.13;;;;;;;21.03;48.16;99789.53;153517;1097;103161;-72
2021/05/11 08:27:33;;;;;;;5.35;4.20;;;;;;;21.37;47.73;99802.30;153679;1104;103152;-73
2021/05/11 08:30:37;;;;;;;6.20;4.15;;;;;;;21.48;47.71;99797.14;153658;1096;103147;-74
2021/05/11 08:33:41;;;;;;;5.70;4.13;;;;;;;21.61;47.75;99798.80;153967;1101;103256;-71
2021/05/11 08:36:44;;;;;;;7.53;4.50;;;;;;;21.69;47.63;99803.86;153974;1101;103150;-71
2021/05/11 08:39:50;;;;;;;4.70;4.00;;;;;;;21.76;47.32;99791.80;153929;1096;103304;-73
2021/05/11 08:42:53;;;;;;;6.00;3.65;;;;;;;21.87;46.88;99798.30;153946;1101;103135;-72
2021/05/11 08:45:59;;;;;;;4.98;3.60;;;;;;;21.97;47.17;99792.25;153944;1101;103206;-71
2021/05/11 08:49:05;;;;;;;6.08;3.88;;;;;;;22.04;46.15;99794.86;153700;1101;103189;-72
2021/05/11 08:52:11;;;;;;;5.30;3.63;;;;;;;22.09;46.70;99789.51;153902;1101;103210;-73
2021/05/11 08:55:30;;;;;;;6.07;3.43;;;;;;;22.18;46.39;99788.06;153920;1101;103209;-73
2021/05/11 09:06:03;;;;;;;4.37;3.00;;;;;;;22.52;44.72;99785.50;153633;1101;103112;-72
2021/05/11 09:09:35;;;;;;;6.23;3.30;;;;;;;22.63;45.18;99781.06;153958;1101;103125;-72
2021/05/11 09:26:13;;;;;;;5.40;3.10;;;;;;;23.12;43.31;99768.61;153620;1097;103592;-71
2021/05/11 09:29:30;;;;;;;6.43;3.05;;;;;;;23.18;43.96;99771.42;153627;1104;103240;-72
2021/05/11 09:56:54;;;;;;;3.57;2.80;;;;;;;23.67;42.85;99755.24;153546;1104;103327;-72
2021/05/11 10:46:26;;;;;;;4.70;2.85;;;;;;;24.40;40.52;99727.78;153425;1105;103358;-73
2021/05/11 10:48:43;;;;;;;4.73;3.03;;;;;;;24.44;40.40;99731.64;153456;1097;103135;-73
2021/05/11 10:51:46;;;;;;;3.78;3.08;;;;;;;24.52;40.51;99716.75;153793;1097;103599;-73
2021/05/11 10:54:53;;;;;;;7.15;3.35;;;;;;;24.59;40.06;99722.82;153978;1101;103201;-72
2021/05/11 10:57:59;;;;;;;7.23;3.63;;;;;;;24.64;39.13;99718.23;153616;1102;103317;-73
2021/05/11 11:01:08;;;;;;;7.35;3.60;;;;;;;24.69;39.81;99721.02;153895;1096;103169;-71
2021/05/11 11:04:15;;;;;;;6.58;3.20;;;;;;;24.76;39.39;99717.25;153918;1101;103134;-72
2021/05/11 11:07:18;;;;;;;4.43;3.20;;;;;;;24.80;40.10;99716.45;154007;1096;103205;-72
2021/05/11 11:10:31;;;;;;;5.53;3.03;;;;;;;24.84;39.49;99714.84;153915;1101;103190;-73
2021/05/11 11:13:35;;;;;;;5.43;3.30;;;;;;;24.91;39.76;99711.91;153919;1096;103224;-72
2021/05/11 11:16:39;;;;;;;6.35;3.30;;;;;;;24.98;38.58;99711.67;153960;1097;103134;-72
2021/05/11 11:19:53;;;;;;;4.83;3.38;;;;;;;25.03;39.58;99703.53;154047;1101;103208;-72
2021/05/11 11:26:40;;;;;;;4.95;3.58;;;;;;;25.11;39.31;99702.22;153973;1101;103307;-72
2021/05/11 11:29:43;;;;;;;3.43;2.90;;;;;;;25.14;39.19;99699.80;153960;1101;103143;-72
2021/05/11 11:32:48;;;;;;;3.80;3.00;;;;;;;25.19;38.67;99698.99;153936;1096;103202;-72
2021/05/11 11:35:52;;;;;;;4.43;3.00;;;;;;;25.21;39.00;99697.66;154007;1096;103254;-73
2021/05/11 11:38:56;;;;;;;5.28;3.13;;;;;;;25.25;38.63;99684.31;153986;1101;103226;-72
2021/05/11 11:42:01;;;;;;;5.55;3.50;;;;;;;25.32;38.49;99684.91;153957;1101;103184;-74
2021/05/11 11:45:08;;;;;;;5.13;3.30;;;;;;;25.34;38.21;99688.19;153995;1101;103257;-72
2021/05/11 11:48:12;;;;;;;6.80;3.60;;;;;;;25.36;37.53;99688.75;153982;1101;103504;-73
2021/05/11 11:51:26;;;;;;;6.47;3.00;;;;;;;25.41;38.57;99679.78;153910;1101;103149;-73
2021/05/11 11:54:35;;;;;;;6.13;3.45;;;;;;;25.52;38.42;99677.90;153989;1096;103519;-72
2021/05/11 11:57:46;;;;;;;5.03;2.87;;;;;;;25.60;38.59;99674.67;153943;1101;103493;-73
2021/05/11 12:00:48;;;;;;;;;;;;;;;25.61;38.22;99674.39;153997;1101;103203;-72
2021/05/11 12:03:55;;;;;;;6.20;3.45;;;;;;;25.64;37.95;99675.78;153920;1101;103199;-72
2021/05/11 12:07:08;;;;;;;5.88;3.10;;;;;;;25.70;38.36;99668.43;153920;1101;103208;-73
2021/05/11 12:10:13;;;;;;;5.05;3.40;;;;;;;25.73;38.25;99663.25;153940;1096;103182;-72
2021/05/11 12:13:21;;;;;;;4.73;3.40;;;;;;;25.78;38.13;99659.70;153921;1097;103280;-72
2021/05/11 12:16:27;;;;;;;6.45;3.13;;;;;;;25.79;37.52;99653.14;153975;1096;103210;-72
2021/05/11 12:19:32;;;;;;;4.30;2.80;;;;;;;25.80;37.74;99658.34;153938;1097;103158;-72
2021/05/11 12:22:35;;;;;;;4.18;3.10;;;;;;;25.86;38.00;99650.98;153907;1101;103614;-72
2021/05/11 12:25:39;;;;;;;4.00;3.07;;;;;;;25.92;37.64;99641.73;153798;1101;103120;-72
2021/05/11 12:28:43;;;;;;;6.80;3.23;;;;;;;25.94;37.74;99638.73;153988;1101;103182;-72
2021/05/11 12:31:48;;;;;;;5.65;3.00;;;;;;;25.96;38.06;99633.81;154024;1101;103558;-73
2021/05/11 12:35:06;;;;;;;4.00;2.97;;;;;;;26.05;38.18;99633.01;153985;1101;103615;-72
2021/05/11 12:38:20;;;;;;;7.55;3.20;;;;;;;26.10;38.07;99640.42;153939;1101;103125;-70
2021/05/11 12:41:32;;;;;;;4.88;3.40;;;;;;;26.16;36.81;99622.92;153927;1096;103129;-72
2021/05/11 12:44:35;;;;;;;7.40;3.43;;;;;;;26.18;37.40;99631.67;153931;1101;103293;-73
2021/05/11 12:47:47;;;;;;;7.15;3.30;;;;;;;26.19;36.64;99627.86;153909;1096;103205;-71
2021/05/11 12:50:50;;;;;;;4.90;3.10;;;;;;;26.23;37.14;99631.69;153960;1096;103228;-72
2021/05/11 12:53:55;;;;;;;7.63;2.87;;;;;;;26.22;36.18;99619.09;153940;1097;104102;-72
2021/05/11 12:57:20;;;;;;;4.23;3.00;;;;;;;26.28;37.10;99613.63;153944;1096;103221;-72
2021/05/11 13:00:41;;;;;;;5.40;2.70;;;;;;;26.33;37.31;99608.14;153923;1101;103629;-72
2021/05/11 13:03:49;;;;;;;;;;;;;;;26.36;35.78;99610.34;153974;1101;103154;-72
2021/05/11 13:13:46;;;;;;;4.13;2.45;;;;;;;26.41;36.76;99602.96;153997;1096;103214;-72
2021/05/11 13:17:02;;;;;;;4.90;2.80;;;;;;;26.49;36.37;99596.12;153902;1101;103206;-71
2021/05/11 13:20:22;;;;;;;7.57;3.00;;;;;;;26.49;36.24;99590.65;153956;1101;103110;-71
2021/05/11 13:26:47;;;;;;;6.63;2.80;;;;;;;26.53;36.12;99586.27;153943;1096;103205;-74
2021/05/11 13:30:03;;;;;;;6.20;2.70;;;;;;;26.55;36.52;99581.33;154098;1101;103230;-72
2021/05/11 13:33:20;;;;;;;6.10;2.47;;;;;;;26.59;36.79;99587.11;153784;1104;103290;-72
2021/05/11 13:36:24;;;;;;;4.30;2.67;;;;;;;26.67;35.60;99580.26;153749;1104;103154;-72
2021/05/11 13:39:27;;;;;;;3.15;2.58;;;;;;;26.69;35.97;99569.85;153589;1104;103200;-72
2021/05/11 13:42:31;;;;;;;4.48;2.48;;;;;;;26.72;36.20;99563.84;153588;1104;103207;-70
2021/05/11 13:45:34;;;;;;;4.47;2.80;;;;;;;26.74;36.34;99567.93;153675;1103;103230;-72
2021/05/11 13:48:39;;;;;;;3.95;2.80;;;;;;;26.77;35.94;99569.28;153890;1096;103224;-72
2021/05/11 13:51:43;;;;;;;4.47;2.67;;;;;;;26.82;35.21;99563.80;153868;1101;103142;-72
2021/05/11 13:54:50;;;;;;;5.47;2.70;;;;;;;26.82;35.36;99558.33;153630;1103;103159;-71
2021/05/11 14:04:45;;;;;;;5.90;2.83;;;;;;;26.82;34.92;99537.25;153669;1097;103299;-71
2021/05/11 14:07:49;;;;;;;4.70;2.70;;;;;;;26.86;35.41;99536.70;153636;1104;103617;-71
2021/05/11 14:10:52;;;;;;;5.13;2.90;;;;;;;26.87;35.58;99536.42;153673;1104;103132;-71
2021/05/11 14:13:56;;;;;;;5.30;3.00;;;;;;;26.88;35.38;99534.50;153780;1097;103142;-72
2021/05/11 14:17:00;;;;;;;7.70;2.80;;;;;;;26.91;35.70;99523.81;153755;1102;103238;-73
2021/05/11 14:20:05;;;;;;;6.50;2.60;;;;;;;26.94;34.83;99531.45;153601;1097;103246;-73
2021/05/11 14:23:08;;;;;;;4.55;3.00;;;;;;;26.96;35.07;99512.02;153721;1104;103208;-72
2021/05/11 14:26:12;;;;;;;5.60;4.27;;;;;;;26.98;35.64;99512.55;153687;1101;103486;-72
2021/05/11 14:29:15;;;;;;;5.25;3.10;;;;;;;26.98;35.48;99520.77;153843;1101;103142;-73
2021/05/11 14:32:19;;;;;;;5.30;2.80;;;;;;;26.95;35.07;99518.61;153957;1101;103250;-72
2021/05/11 14:35:22;;;;;;;3.78;2.85;;;;;;;26.93;35.49;99513.41;153969;1101;103326;-73
2021/05/11 14:38:26;;;;;;;4.70;2.70;;;;;;;26.91;34.90;99518.34;153918;1097;103641;-73
2021/05/11 14:41:29;;;;;;;6.00;3.00;;;;;;;26.89;35.20;99514.22;153893;1097;103223;-72
2021/05/11 14:44:33;;;;;;;3.40;2.60;;;;;;;26.88;35.23;99510.67;153876;1097;103170;-73
2021/05/11 14:47:37;;;;;;;6.13;2.70;;;;;;;26.86;35.46;99504.66;153832;1096;103242;-73
2021/05/11 14:50:48;;;;;;;5.83;2.90;;;;;;;26.87;35.34;99500.84;153675;1097;103663;-72
2021/05/11 14:53:51;;;;;;;5.40;2.90;;;;;;;26.87;34.74;99494.52;153961;1101;103183;-74
2021/05/11 14:56:55;;;;;;;5.17;2.70;;;;;;;26.83;34.91;99495.10;153687;1097;103109;-73
2021/05/11 14:59:58;;;;;;;5.83;2.80;;;;;;;26.82;35.27;99495.38;153614;1097;103173;-72
2021/05/11 15:03:02;;;;;;;5.93;2.70;;;;;;;26.81;34.94;99497.30;153616;1104;103208;-72
2021/05/11 15:06:06;;;;;;;2.93;2.30;;;;;;;26.78;35.15;99477.88;153608;1104;103288;-73
2021/05/11 15:09:10;;;;;;;4.93;2.60;;;;;;;26.79;34.93;99483.08;153663;1104;103189;-72
2021/05/11 15:12:14;;;;;;;4.78;2.60;;;;;;;26.75;35.15;99481.16;153615;1104;103208;-72
2021/05/11 15:15:20;;;;;;;7.23;2.83;;;;;;;26.75;34.90;99483.89;153618;1104;103208;-72
2021/05/11 15:18:24;;;;;;;4.60;2.50;;;;;;;26.73;34.76;99480.63;153653;1104;103323;-72
2021/05/11 15:21:27;;;;;;;6.23;2.50;;;;;;;26.73;34.96;99495.11;153637;1097;103276;-73
2021/05/11 15:24:31;;;;;;;5.97;3.17;;;;;;;26.71;35.26;99485.55;153623;1097;103142;-72
2021/05/11 15:27:35;;;;;;;7.53;2.70;;;;;;;26.69;34.73;99482.28;153610;1104;103157;-73
2021/05/11 15:30:39;;;;;;;6.50;3.00;;;;;;;26.66;34.74;99486.41;153988;1097;103496;-73
2021/05/11 15:33:43;;;;;;;5.10;3.50;;;;;;;26.63;35.45;99467.80;153936;1097;103212;-72
2021/05/11 15:36:46;;;;;;;5.23;2.80;;;;;;;26.58;34.50;99481.45;153881;1101;103286;-72
2021/05/11 15:39:50;;;;;;;3.58;2.55;;;;;;;26.53;34.48;99479.56;153897;1101;103560;-73
2021/05/11 15:42:55;;;;;;;5.03;2.70;;;;;;;26.48;34.14;99471.36;153905;1101;103115;-72
2021/05/11 15:45:59;;;;;;;4.33;2.50;;;;;;;26.44;34.34;99471.12;153930;1101;103185;-73
2021/05/11 15:49:02;;;;;;;4.57;2.50;;;;;;;26.40;34.70;99469.20;153940;1097;103224;-73
2021/05/11 15:52:06;;;;;;;7.40;2.55;;;;;;;26.37;34.27;99475.23;153700;1097;103282;-72
2021/05/11 15:55:12;;;;;;;6.07;2.70;;;;;;;26.32;34.12;99475.23;153966;1101;103131;-72
2021/05/11 15:58:17;;;;;;;6.73;2.83;;;;;;;26.29;33.52;99478.52;153975;1101;103109;-73
2021/05/11 16:01:20;;;;;;;3.65;2.50;;;;;;;26.25;33.61;99461.84;153940;1101;103145;-73
2021/05/11 16:04:24;;;;;;;6.80;2.60;;;;;;;26.22;33.10;99463.22;153929;1097;103233;-72
2021/05/11 16:07:28;;;;;;;4.50;2.40;;;;;;;26.19;33.71;99466.52;153958;1102;103219;-73
2021/05/11 16:10:31;;;;;;;5.75;3.10;;;;;;;26.15;33.97;99470.88;153933;1101;103204;-75
2021/05/11 16:13:39;;;;;;;4.93;2.40;;;;;;;26.10;33.62;99464.59;153920;1097;103142;-71
2021/05/11 16:16:43;;;;;;;5.57;2.67;;;;;;;26.07;33.64;99460.50;153913;1101;103237;-71
2021/05/11 16:19:48;;;;;;;6.05;2.70;;;;;;;26.02;33.74;99452.30;153948;1101;103499;-71
2021/05/11 16:22:52;;;;;;;5.70;2.40;;;;;;;26.00;33.67;99459.95;154695;1101;103604;-69
2021/05/11 16:25:55;;;;;;;3.60;2.55;;;;;;;25.95;33.83;99465.45;154081;1101;103203;-69
2021/05/11 16:28:59;;;;;;;6.40;2.40;;;;;;;25.90;33.33;99457.20;153992;1101;103134;-69
2021/05/11 16:32:05;;;;;;;7.20;2.27;;;;;;;25.84;33.87;99457.20;153862;1097;103118;-70
2021/05/11 16:35:10;;;;;;;5.75;2.35;;;;;;;25.78;33.83;99462.95;154081;1096;103204;-70
2021/05/11 16:38:13;;;;;;;2.33;2.10;;;;;;;25.73;33.89;99465.67;154073;1097;103221;-69
2021/05/11 16:41:17;;;;;;;3.80;2.13;;;;;;;25.67;33.83;99456.65;153781;1101;103196;-70
2021/05/11 16:44:21;;;;;;;4.50;2.47;;;;;;;25.61;33.88;99458.55;154901;1096;103120;-73
2021/05/11 16:47:24;;;;;;;3.63;2.20;;;;;;;25.55;33.43;99464.30;154163;1101;103157;-72
2021/05/11 16:50:29;;;;;;;4.15;2.33;;;;;;;25.47;34.02;99462.92;154046;1101;103158;-73
2021/05/11 16:53:33;;;;;;;4.63;2.00;;;;;;;25.39;33.81;99460.73;154157;1096;103585;-73
2021/05/11 16:56:37;;;;;;;3.30;1.80;;;;;;;25.33;33.90;99457.17;154224;1101;103500;-72
2021/05/11 16:59:40;;;;;;;2.33;1.77;;;;;;;25.27;33.71;99460.99;154205;1096;103167;-71
2021/05/11 17:02:44;;;;;;;4.90;2.13;;;;;;;25.19;34.22;99462.30;154125;1101;103163;-72
2021/05/11 17:05:48;;;;;;;3.53;2.00;;;;;;;25.12;34.06;99464.46;154163;1101;103186;-71
2021/05/11 17:08:52;;;;;;;4.75;2.00;;;;;;;25.04;34.43;99465.80;154154;1101;103369;-72
2021/05/11 17:11:55;;;;;;;5.63;2.23;;;;;;;24.96;34.14;99468.22;154231;1101;103129;-72
2021/05/11 17:14:59;;;;;;;5.93;2.10;;;;;;;24.89;34.39;99471.20;154323;1101;103205;-71
2021/05/11 17:18:05;;;;;;;5.50;2.30;;;;;;;24.81;34.62;99464.36;153958;1101;103128;-70
2021/05/11 17:21:11;;;;;;;3.93;2.00;;;;;;;24.73;34.54;99469.48;153713;1096;103505;-71
2021/05/11 17:24:15;;;;;;;5.50;1.90;;;;;;;24.65;34.63;99473.55;154135;1101;103191;-72